Time;durP1;ratioP1;P1;durP2;ratioP2;P2;SDS_P1;SDS_P2;PMS_P1;PMS_P2;Temp;Humidity;BMP_temperature;BMP_pressure;BME280_temperature;BME280_humidity;BME280_pressure;Samples;Min_cycle;Max_cycle;Signal;HPM_P1;HPM_P2
2021/04/05 00:02:15;;;;;;;10.60;2.60;;;16.70;93.90;;;;;;5071533;28;20035;-59
2021/04/05 00:04:41;;;;;;;10.02;2.53;;;16.60;94.00;;;;;;5062888;28;20094;-60
2021/04/05 00:07:08;;;;;;;9.80;2.58;;;16.60;94.00;;;;;;5071455;28;20021;-60
2021/04/05 00:09:33;;;;;;;8.68;2.47;;;16.60;94.10;;;;;;5071577;28;20090;-59
2021/04/05 00:11:59;;;;;;;7.65;2.50;;;16.60;94.20;;;;;;5072620;28;20480;-59
2021/04/05 00:14:26;;;;;;;6.82;2.50;;;16.50;93.90;;;;;;5075198;28;20020;-61
2021/04/05 00:16:52;;;;;;;8.20;2.65;;;16.50;94.30;;;;;;5075039;28;20086;-59
2021/04/05 00:19:18;;;;;;;7.47;2.40;;;16.50;94.40;;;;;;5073968;28;20427;-59
2021/04/05 00:21:44;;;;;;;6.00;2.58;;;16.50;94.30;;;;;;5075296;28;20021;-58
2021/04/05 00:24:10;;;;;;;7.07;2.63;;;16.50;94.40;;;;;;5074612;28;20033;-60
2021/04/05 00:26:35;;;;;;;6.57;2.58;;;16.50;94.60;;;;;;5074493;28;20033;-61
2021/04/05 00:29:01;;;;;;;9.23;2.67;;;16.40;94.30;;;;;;5075037;28;20047;-61
2021/04/05 00:31:27;;;;;;;10.68;2.45;;;16.50;94.60;;;;;;5075089;28;20025;-59
2021/04/05 00:33:53;;;;;;;6.28;2.40;;;16.40;94.70;;;;;;5074938;28;20465;-60
2021/04/05 00:36:18;;;;;;;6.93;2.60;;;16.40;94.70;;;;;;5075157;28;20075;-59
2021/04/05 00:38:44;;;;;;;6.20;2.40;;;16.40;94.70;;;;;;5073476;28;20028;-59
2021/04/05 00:41:12;;;;;;;6.45;2.78;;;16.40;94.80;;;;;;5074873;28;20028;-59
2021/04/05 00:43:40;;;;;;;7.03;2.90;;;16.30;94.80;;;;;;5074807;28;20020;-58
2021/04/05 00:46:06;;;;;;;8.75;2.65;;;16.30;94.80;;;;;;5074570;28;20028;-61
2021/04/05 00:48:33;;;;;;;4.90;2.10;;;16.30;94.80;;;;;;5074509;28;20062;-61
2021/04/05 00:51:01;;;;;;;7.43;2.65;;;16.30;95.10;;;;;;5074513;28;20043;-59
2021/04/05 00:53:34;;;;;;;7.57;2.80;;;16.30;95.10;;;;;;5074727;28;20028;-63
2021/04/05 00:56:00;;;;;;;6.13;2.90;;;16.30;95.10;;;;;;5057876;28;20044;-60
2021/04/05 00:58:27;;;;;;;9.77;2.65;;;16.30;95.10;;;;;;5073060;28;20469;-61
2021/04/05 01:00:59;;;;;;;6.97;2.85;;;16.20;95.20;;;;;;5074721;28;20082;-61
2021/04/05 01:03:27;;;;;;;9.68;2.75;;;16.20;95.10;;;;;;5074154;28;20021;-62
2021/04/05 01:05:53;;;;;;;8.77;3.30;;;16.20;95.50;;;;;;5073921;28;20040;-63
2021/04/05 01:08:19;;;;;;;8.18;2.95;;;16.20;95.30;;;;;;5074568;28;20021;-64
2021/04/05 01:10:46;;;;;;;9.75;3.15;;;16.20;95.30;;;;;;5074290;28;20447;-64
2021/04/05 01:13:13;;;;;;;7.72;3.05;;;16.20;95.60;;;;;;5073670;28;20103;-61
2021/04/05 01:15:38;;;;;;;7.10;3.00;;;16.20;95.90;;;;;;5074125;28;20427;-59
2021/04/05 01:18:05;;;;;;;6.80;3.05;;;16.10;96.10;;;;;;5074103;28;20103;-62
2021/04/05 01:20:31;;;;;;;6.63;2.95;;;16.20;96.50;;;;;;5074330;28;20025;-61
2021/04/05 01:22:59;;;;;;;6.38;2.78;;;16.20;96.40;;;;;;5074011;28;20538;-61
2021/04/05 01:25:25;;;;;;;7.55;3.22;;;16.20;96.60;;;;;;5073092;28;20043;-59
2021/04/05 01:27:54;;;;;;;7.88;2.83;;;16.10;96.50;;;;;;5074302;28;20020;-64
2021/04/05 01:30:53;;;;;;;7.53;3.03;;;16.10;96.80;;;;;;5072108;28;20043;-61
2021/04/05 01:33:33;;;;;;;6.25;2.78;;;16.10;96.90;;;;;;5066180;28;20040;-63
2021/04/05 01:36:10;;;;;;;7.30;3.03;;;16.10;97.00;;;;;;5073954;28;20467;-59
2021/04/05 01:38:40;;;;;;;7.82;3.50;;;16.10;97.20;;;;;;5060783;28;20044;-59
2021/04/05 01:41:12;;;;;;;8.77;3.13;;;16.10;97.20;;;;;;5053796;28;20025;-60
2021/04/05 01:43:38;;;;;;;6.78;2.97;;;16.10;97.20;;;;;;5053647;28;20495;-58
2021/04/05 01:46:05;;;;;;;6.95;3.08;;;16.00;97.50;;;;;;5053594;28;20037;-59
2021/04/05 01:48:32;;;;;;;5.32;2.88;;;16.00;97.60;;;;;;5053634;28;20052;-61
2021/04/05 01:51:02;;;;;;;6.32;2.90;;;16.00;97.60;;;;;;5053425;28;20036;-61
2021/04/05 01:53:28;;;;;;;6.90;3.22;;;16.00;97.70;;;;;;5053566;28;20102;-59
2021/04/05 01:55:57;;;;;;;8.02;3.20;;;16.00;97.50;;;;;;5069307;28;20078;-59
2021/04/05 01:58:23;;;;;;;7.38;2.92;;;16.00;97.90;;;;;;5053750;28;20029;-59
2021/04/05 02:00:49;;;;;;;8.35;3.25;;;16.00;98.00;;;;;;5053341;28;20029;-59
2021/04/05 02:03:15;;;;;;;10.00;3.33;;;16.00;98.00;;;;;;5053437;28;20023;-61
2021/04/05 02:05:59;;;;;;;6.25;3.10;;;16.00;97.60;;;;;;5073198;28;20115;-59
2021/04/05 02:08:25;;;;;;;8.77;3.50;;;16.00;98.00;;;;;;5073529;28;20054;-59
2021/04/05 02:10:53;;;;;;;9.27;3.55;;;15.90;98.00;;;;;;5072818;28;20033;-59
2021/04/05 02:13:22;;;;;;;9.07;3.40;;;15.90;98.20;;;;;;5071728;28;20021;-61
2021/04/05 02:15:52;;;;;;;7.90;3.72;;;15.90;97.90;;;;;;5073033;28;20522;-59
2021/04/05 02:18:22;;;;;;;7.07;3.50;;;15.90;98.50;;;;;;5072988;28;20048;-60
2021/04/05 02:20:49;;;;;;;6.85;3.30;;;15.90;98.50;;;;;;5073019;28;20439;-60
2021/04/05 02:23:16;;;;;;;8.63;3.63;;;15.90;98.50;;;;;;5072919;28;20028;-59
2021/04/05 02:28:48;;;;;;;8.48;3.47;;;15.90;98.60;;;;;;5050588;28;20033;-59
2021/04/05 02:31:16;;;;;;;8.20;3.10;;;15.90;98.60;;;;;;5068250;28;20063;-59
2021/04/05 02:33:46;;;;;;;7.13;3.03;;;15.90;98.50;;;;;;5072119;28;20104;-59
2021/04/05 02:36:14;;;;;;;6.78;3.22;;;15.90;98.50;;;;;;5072680;28;20063;-59
2021/04/05 02:38:42;;;;;;;8.65;3.28;;;15.90;98.70;;;;;;5072490;28;20028;-59
2021/04/05 02:41:08;;;;;;;6.28;3.20;;;15.90;98.40;;;;;;5072547;28;20021;-59
2021/04/05 02:43:35;;;;;;;9.20;3.28;;;15.80;98.40;;;;;;5072522;28;20357;-59
2021/04/05 02:46:03;;;;;;;5.50;3.22;;;15.90;98.70;;;;;;5072408;28;20055;-62
2021/04/05 02:48:35;;;;;;;7.53;3.55;;;15.80;98.80;;;;;;5072635;28;20377;-60
2021/04/05 02:51:06;;;;;;;8.38;3.40;;;15.80;99.00;;;;;;5072296;28;20123;-59
2021/04/05 02:53:35;;;;;;;9.25;3.83;;;15.80;99.10;;;;;;5072356;28;20017;-61
2021/04/05 02:56:03;;;;;;;7.55;3.58;;;15.80;98.90;;;;;;5070194;28;20077;-58
2021/04/05 02:58:33;;;;;;;6.68;3.30;;;15.80;99.30;;;;;;5052638;28;20033;-59
2021/04/05 03:01:01;;;;;;;9.93;3.58;;;15.80;98.90;;;;;;5052538;28;20064;-59
2021/04/05 03:03:27;;;;;;;7.90;3.15;;;15.80;99.00;;;;;;5052570;28;20033;-61
2021/04/05 03:05:54;;;;;;;8.18;3.50;;;15.80;98.80;;;;;;5051982;28;20492;-59
2021/04/05 03:08:20;;;;;;;8.23;3.10;;;15.70;99.30;;;;;;5052102;28;20032;-59
2021/04/05 03:10:46;;;;;;;8.73;3.30;;;15.80;99.20;;;;;;5052154;28;20112;-59
2021/04/05 03:13:14;;;;;;;8.50;3.47;;;15.70;98.90;;;;;;5052106;28;20056;-59
2021/04/05 03:15:41;;;;;;;7.22;3.65;;;15.70;98.70;;;;;;5050655;28;20033;-60
2021/04/05 03:18:07;;;;;;;6.38;3.42;;;15.70;99.00;;;;;;5052004;28;20021;-59
2021/04/05 03:20:35;;;;;;;7.40;3.58;;;15.70;99.10;;;;;;5051890;28;20412;-60
2021/04/05 03:23:02;;;;;;;7.65;3.60;;;15.70;99.20;;;;;;5052189;28;20025;-60
2021/04/05 03:25:28;;;;;;;7.97;3.53;;;15.70;99.10;;;;;;5052063;28;20439;-60
2021/04/05 03:27:54;;;;;;;8.70;3.83;;;15.70;99.10;;;;;;5051817;28;20025;-59
2021/04/05 03:30:36;;;;;;;9.77;4.10;;;15.70;99.10;;;;;;5051912;28;20032;-60
2021/04/05 03:33:16;;;;;;;8.43;3.53;;;15.70;99.20;;;;;;5051887;28;20561;-59
2021/04/05 03:35:45;;;;;;;8.30;3.67;;;15.70;99.30;;;;;;5051774;28;20027;-59
2021/04/05 03:38:15;;;;;;;10.05;3.50;;;15.70;99.10;;;;;;5050406;28;20086;-59
2021/04/05 03:40:42;;;;;;;7.57;3.35;;;15.60;99.00;;;;;;5051569;28;20039;-60
2021/04/05 03:43:18;;;;;;;10.77;3.67;;;15.60;99.00;;;;;;5051589;28;20027;-62
2021/04/05 03:45:47;;;;;;;7.22;3.30;;;15.60;99.10;;;;;;5052303;28;20033;-59
2021/04/05 03:48:21;;;;;;;8.48;3.60;;;15.60;99.00;;;;;;5055691;28;20408;-61
2021/04/05 03:51:05;;;;;;;9.85;3.53;;;15.60;98.60;;;;;;5055605;28;20044;-62
2021/04/05 03:53:37;;;;;;;10.05;3.53;;;15.60;98.90;;;;;;5072880;28;20108;-61
2021/04/05 03:56:11;;;;;;;11.00;3.25;;;15.60;99.00;;;;;;5074443;28;20040;-59
2021/04/05 03:58:41;;;;;;;6.35;3.33;;;15.60;99.00;;;;;;5075590;28;20149;-63
2021/04/05 04:01:08;;;;;;;6.10;3.25;;;15.60;98.90;;;;;;5075557;28;20075;-62
2021/04/05 04:04:02;;;;;;;6.72;3.45;;;15.60;99.00;;;;;;5075679;28;20480;-60
2021/04/05 04:06:37;;;;;;;8.00;3.28;;;15.60;99.00;;;;;;5075488;28;20041;-63
2021/04/05 04:09:05;;;;;;;6.60;3.28;;;15.60;99.30;;;;;;5074584;28;20111;-59
2021/04/05 04:11:34;;;;;;;8.52;3.67;;;15.60;99.10;;;;;;5075825;28;20054;-58
2021/04/05 04:14:03;;;;;;;7.57;3.40;;;15.60;99.20;;;;;;5075662;28;20032;-59
2021/04/05 04:16:30;;;;;;;5.72;3.35;;;15.60;99.20;;;;;;5075211;28;20112;-60
2021/04/05 04:19:01;;;;;;;7.78;3.13;;;15.60;99.30;;;;;;5075242;28;20025;-61
2021/04/05 04:21:27;;;;;;;8.32;3.30;;;15.60;99.30;;;;;;5075217;28;20016;-61
2021/04/05 04:23:55;;;;;;;6.57;3.17;;;15.60;99.60;;;;;;5071629;28;20396;-61
2021/04/05 04:26:21;;;;;;;5.70;3.10;;;15.60;99.20;;;;;;5054995;28;20040;-60
2021/04/05 04:28:46;;;;;;;7.07;3.47;;;15.60;99.20;;;;;;5055160;28;20101;-59
2021/04/05 04:31:12;;;;;;;8.18;3.50;;;15.60;99.50;;;;;;5054901;28;20021;-59
2021/04/05 04:33:38;;;;;;;9.38;3.60;;;15.50;99.10;;;;;;5055167;28;20466;-59
2021/04/05 04:36:05;;;;;;;7.18;3.40;;;15.50;98.90;;;;;;5055178;28;20134;-59
2021/04/05 04:38:32;;;;;;;8.23;3.33;;;15.50;99.10;;;;;;5055268;28;20116;-60
2021/04/05 04:40:57;;;;;;;7.53;3.42;;;15.50;98.90;;;;;;5054814;28;20025;-62
2021/04/05 04:43:23;;;;;;;8.13;3.33;;;15.50;99.10;;;;;;5054762;28;20031;-59
2021/04/05 04:45:49;;;;;;;8.30;3.50;;;15.50;99.00;;;;;;5054616;28;20431;-60
2021/04/05 04:48:15;;;;;;;6.95;3.38;;;15.50;99.00;;;;;;5054863;28;20092;-60
2021/04/05 04:50:41;;;;;;;7.03;3.35;;;15.50;99.10;;;;;;5054674;28;20078;-60
2021/04/05 04:53:06;;;;;;;8.20;3.58;;;15.50;99.30;;;;;;5069704;28;20085;-59
2021/04/05 04:55:34;;;;;;;8.77;3.20;;;15.50;99.10;;;;;;5073964;28;20032;-59
2021/04/05 04:58:02;;;;;;;9.13;3.30;;;15.50;99.50;;;;;;5074103;28;20028;-58
2021/04/05 05:00:32;;;;;;;9.02;3.58;;;15.50;99.30;;;;;;5071839;28;20524;-58
2021/04/05 05:02:59;;;;;;;8.10;3.40;;;15.40;99.10;;;;;;5074093;28;20027;-59
2021/04/05 05:05:29;;;;;;;7.88;3.35;;;15.50;99.20;;;;;;5074410;28;20025;-58
2021/04/05 05:07:55;;;;;;;8.95;3.67;;;15.50;99.20;;;;;;5074451;28;20017;-59
2021/04/05 05:10:21;;;;;;;7.93;3.60;;;15.50;99.30;;;;;;5074456;28;20169;-59
2021/04/05 05:12:47;;;;;;;9.35;3.50;;;15.50;99.30;;;;;;5073969;28;20504;-59
2021/04/05 05:15:14;;;;;;;10.07;3.50;;;15.50;99.30;;;;;;5073252;28;20032;-59
2021/04/05 05:17:47;;;;;;;9.85;3.05;;;15.50;99.40;;;;;;5074155;28;20407;-60
2021/04/05 05:20:15;;;;;;;8.07;3.00;;;15.50;99.40;;;;;;5074363;28;20024;-59
2021/04/05 05:23:01;;;;;;;7.15;3.22;;;15.50;99.40;;;;;;5073852;28;20052;-58
2021/04/05 05:25:29;;;;;;;10.23;3.30;;;15.50;99.40;;;;;;5074067;28;20503;-59
2021/04/05 05:28:01;;;;;;;7.57;3.25;;;15.50;99.30;;;;;;5074131;28;20028;-59
2021/04/05 05:30:28;;;;;;;7.63;3.22;;;15.40;99.30;;;;;;5074244;28;20030;-60
2021/04/05 05:32:55;;;;;;;10.20;3.80;;;15.50;99.20;;;;;;5074089;28;20020;-59
2021/04/05 05:35:22;;;;;;;7.38;2.90;;;15.50;99.60;;;;;;5074030;28;20060;-59
2021/04/05 05:37:49;;;;;;;10.10;3.30;;;15.50;99.50;;;;;;5073944;28;20439;-60
2021/04/05 05:40:24;;;;;;;12.25;3.65;;;15.50;99.90;;;;;;5074001;28;20035;-58
2021/04/05 05:43:08;;;;;;;13.95;3.35;;;15.50;99.60;;;;;;5089483;28;20031;-60
2021/04/05 05:45:42;;;;;;;7.97;3.42;;;15.50;99.60;;;;;;5068445;28;20067;-63
2021/04/05 05:48:33;;;;;;;;;;;15.40;99.40;;;;;;5054361;28;20385;-59
2021/04/05 05:51:13;;;;;;;10.82;3.80;;;15.50;99.90;;;;;;5071069;28;19912;-60
2021/04/05 05:53:48;;;;;;;7.47;3.33;;;15.50;99.80;;;;;;5073296;28;20035;-59
2021/04/05 05:56:41;;;;;;;8.38;3.67;;;15.50;99.60;;;;;;5073439;28;20021;-59
2021/04/05 05:59:39;;;;;;;6.63;3.42;;;15.50;99.50;;;;;;5074056;28;20104;-61
2021/04/05 06:02:35;;;;;;;7.75;3.22;;;15.50;99.80;;;;;;5073547;28;20021;-59
2021/04/05 06:05:26;;;;;;;7.25;3.30;;;15.50;99.60;;;;;;5073340;28;20358;-60
2021/04/05 06:08:04;;;;;;;9.25;3.38;;;15.50;99.50;;;;;;5073079;28;20024;-61
2021/04/05 06:10:41;;;;;;;8.95;3.13;;;15.50;99.50;;;;;;5072908;28;20029;-65
2021/04/05 06:13:34;;;;;;;7.20;3.08;;;15.50;99.70;;;;;;5073079;28;20029;-64
2021/04/05 06:16:33;;;;;;;11.02;3.22;;;15.50;99.80;;;;;;5064462;28;20033;-63
2021/04/05 06:18:59;;;;;;;9.75;2.90;;;15.50;99.90;;;;;;5053184;28;20063;-64
2021/04/05 06:21:39;;;;;;;6.32;3.47;;;15.50;99.80;;;;;;5053181;28;20017;-60
2021/04/05 06:24:15;;;;;;;10.20;3.70;;;15.50;99.80;;;;;;5053154;28;20432;-63
2021/04/05 06:27:12;;;;;;;7.28;3.38;;;15.50;99.90;;;;;;5053447;28;20040;-60
2021/04/05 06:30:03;;;;;;;8.40;3.40;;;15.50;99.80;;;;;;5052866;28;20499;-64
2021/04/05 06:32:48;;;;;;;5.45;3.13;;;15.50;99.70;;;;;;5052829;28;20036;-64
2021/04/05 06:35:31;;;;;;;8.75;3.33;;;15.50;99.70;;;;;;5052930;28;20035;-64
2021/04/05 06:38:21;;;;;;;8.82;3.55;;;15.50;99.70;;;;;;5052985;28;20558;-62
2021/04/05 06:40:48;;;;;;;7.60;3.30;;;15.50;99.90;;;;;;5052816;28;20025;-62
2021/04/05 06:43:29;;;;;;;7.45;3.22;;;15.50;99.90;;;;;;5052753;28;20029;-58
2021/04/05 06:46:22;;;;;;;10.77;3.83;;;15.60;99.80;;;;;;5062796;28;20476;-60
2021/04/05 06:49:04;;;;;;;10.25;3.78;;;15.60;99.90;;;;;;5072433;28;20048;-59
2021/04/05 06:51:48;;;;;;;7.25;3.13;;;15.60;99.90;;;;;;5065254;28;20035;-59
2021/04/05 06:54:41;;;;;;;9.95;2.88;;;15.50;97.90;;;;;;5069748;28;20028;-59
2021/04/05 06:57:15;;;;;;;7.07;3.03;;;15.40;96.00;;;;;;5054071;28;20111;-60
2021/04/05 07:00:01;;;;;;;7.85;2.90;;;15.40;95.60;;;;;;5068871;28;20412;-59
2021/04/05 07:02:46;;;;;;;7.95;3.00;;;15.40;94.60;;;;;;5061145;28;20111;-59
2021/04/05 07:05:18;;;;;;;6.00;2.92;;;15.40;94.40;;;;;;5082444;28;20039;-59
2021/04/05 07:08:02;;;;;;;7.15;3.13;;;15.40;95.00;;;;;;5071129;28;20043;-60
2021/04/05 07:10:33;;;;;;;6.82;2.95;;;15.40;94.70;;;;;;5065122;28;20078;-61
2021/04/05 07:13:15;;;;;;;5.70;3.08;;;15.40;95.00;;;;;;5072003;28;20032;-61
2021/04/05 07:16:00;;;;;;;7.78;3.25;;;15.40;94.90;;;;;;5072001;28;20090;-62
2021/04/05 07:18:43;;;;;;;6.90;2.92;;;15.40;94.80;;;;;;5057136;28;20039;-60
2021/04/05 07:21:33;;;;;;;12.50;3.53;;;15.50;94.80;;;;;;5051979;28;20078;-60
2021/04/05 07:24:08;;;;;;;10.63;3.65;;;15.50;94.60;;;;;;5051906;28;20028;-59
2021/04/05 07:26:49;;;;;;;11.43;3.60;;;15.40;94.50;;;;;;5057222;28;20111;-61
2021/04/05 07:29:37;;;;;;;8.88;3.03;;;15.40;94.40;;;;;;5072337;28;20028;-59
2021/04/05 07:32:09;;;;;;;8.07;3.03;;;15.40;94.80;;;;;;5090326;28;20028;-60
2021/04/05 07:34:53;;;;;;;9.48;3.53;;;15.40;94.70;;;;;;5070776;28;20024;-59
2021/04/05 07:37:32;;;;;;;13.57;3.60;;;15.50;95.10;;;;;;5071686;28;20101;-61
2021/04/05 07:40:07;;;;;;;8.25;3.15;;;15.50;94.80;;;;;;5068071;28;20040;-62
2021/04/05 07:43:00;;;;;;;11.82;3.70;;;15.40;95.00;;;;;;5052781;28;20033;-61
2021/04/05 07:45:39;;;;;;;8.15;3.50;;;15.40;95.00;;;;;;5051806;28;20043;-60
2021/04/05 07:48:19;;;;;;;8.30;3.40;;;15.40;95.00;;;;;;5063334;28;20021;-59
2021/04/05 07:51:09;;;;;;;7.68;3.40;;;15.40;95.00;;;;;;5051796;28;20033;-59
2021/04/05 07:53:57;;;;;;;9.38;3.50;;;15.40;95.30;;;;;;5068651;28;20028;-60
2021/04/05 07:56:35;;;;;;;4.85;3.03;;;15.40;95.60;;;;;;5055491;28;20426;-61
2021/04/05 07:59:38;;;;;;;9.75;3.28;;;15.40;95.40;;;;;;5083718;28;20118;-60
2021/04/05 08:02:25;;;;;;;6.22;2.78;;;15.40;95.40;;;;;;5064802;28;20027;-60
2021/04/05 08:05:19;;;;;;;7.57;2.80;;;15.50;95.50;;;;;;5067395;28;20043;-62
2021/04/05 08:07:54;;;;;;;7.85;2.95;;;15.40;95.50;;;;;;5054326;28;20473;-61
2021/04/05 08:10:23;;;;;;;7.50;2.72;;;15.50;95.70;;;;;;5055724;28;20043;-62
2021/04/05 08:13:16;;;;;;;7.32;2.80;;;15.50;95.70;;;;;;5062233;28;20021;-60
2021/04/05 08:16:03;;;;;;;5.47;2.90;;;15.50;95.80;;;;;;5051579;28;20040;-64
2021/04/05 08:18:44;;;;;;;5.85;2.78;;;15.50;95.80;;;;;;5068946;28;20025;-67
2021/04/05 08:21:32;;;;;;;9.23;2.53;;;15.50;95.80;;;;;;5060466;28;20086;-63
2021/04/05 08:24:15;;;;;;;6.15;2.60;;;15.50;95.90;;;;;;5051556;28;20056;-65
2021/04/05 08:27:19;;;;;;;6.10;2.75;;;15.50;95.90;;;;;;5061388;28;20071;-66
2021/04/05 08:30:07;;;;;;;7.23;2.73;;;15.50;96.00;;;;;;5050444;28;20098;-67
2021/04/05 08:32:47;;;;;;;6.93;2.55;;;15.50;96.00;;;;;;5061102;28;20472;-60
2021/04/05 08:35:16;;;;;;;6.90;2.67;;;15.50;96.00;;;;;;5071992;28;20029;-64
2021/04/05 08:37:57;;;;;;;5.53;2.17;;;15.50;96.10;;;;;;5073946;28;20127;-69
2021/04/05 08:40:36;;;;;;;5.35;2.35;;;15.50;96.10;;;;;;5075164;28;20106;-66
2021/04/05 08:43:31;;;;;;;5.63;2.28;;;15.60;96.20;;;;;;5074987;28;20488;-66
2021/04/05 08:46:18;;;;;;;4.97;2.40;;;15.50;96.20;;;;;;5072593;28;20161;-68
2021/04/05 08:48:48;;;;;;;7.47;2.30;;;15.60;96.30;;;;;;5074916;28;20032;-67
2021/04/05 08:51:23;;;;;;;5.95;2.63;;;15.60;96.30;;;;;;5059674;28;20029;-66
2021/04/05 08:53:53;;;;;;;4.80;2.25;;;15.60;96.40;;;;;;5055040;28;20033;-67
2021/04/05 08:56:20;;;;;;;6.20;2.47;;;15.60;96.40;;;;;;5065830;28;20063;-65
2021/04/05 08:58:57;;;;;;;6.40;2.45;;;15.60;96.50;;;;;;5074865;28;20020;-66
2021/04/05 09:01:30;;;;;;;5.47;3.17;;;15.60;96.40;;;;;;5064573;28;20024;-76
2021/04/05 09:03:56;;;;;;;5.93;2.25;;;15.60;96.50;;;;;;5058507;28;20021;-68
2021/04/05 09:06:32;;;;;;;4.35;2.40;;;15.60;96.50;;;;;;5054455;28;20029;-67
2021/04/05 09:09:01;;;;;;;6.80;2.20;;;15.60;96.50;;;;;;5054642;28;20140;-66
2021/04/05 09:11:30;;;;;;;5.72;2.30;;;15.60;96.50;;;;;;5055462;28;20029;-66
2021/04/05 09:14:02;;;;;;;4.97;2.20;;;15.60;97.10;;;;;;5055477;28;20092;-60
2021/04/05 09:16:39;;;;;;;5.32;2.28;;;15.60;96.70;;;;;;5073972;28;20358;-65
2021/04/05 09:19:53;;;;;;;3.83;1.95;;;15.60;96.60;;;;;;5072446;28;20175;-60
2021/04/05 09:22:53;;;;;;;4.05;2.00;;;15.60;97.00;;;;;;5070858;28;20040;-60
2021/04/05 09:25:38;;;;;;;5.93;2.10;;;15.60;96.80;;;;;;5068975;28;20511;-61
2021/04/05 09:28:36;;;;;;;8.20;1.92;;;15.70;97.00;;;;;;5073995;28;20099;-59
2021/04/05 09:31:39;;;;;;;7.00;2.10;;;15.80;96.60;;;;;;5074153;28;20468;-61
2021/04/05 09:34:26;;;;;;;4.40;1.90;;;15.90;95.30;;;;;;5071597;28;20060;-63
2021/04/05 09:37:13;;;;;;;6.57;1.98;;;16.10;94.70;;;;;;5073906;28;20049;-59
2021/04/05 09:40:05;;;;;;;4.95;1.60;;;16.30;94.40;;;;;;5073057;28;20017;-58
2021/04/05 09:42:58;;;;;;;5.50;1.98;;;16.40;94.10;;;;;;5068155;28;20377;-59
2021/04/05 09:45:31;;;;;;;6.90;1.83;;;16.50;94.00;;;;;;5053562;28;20108;-58
2021/04/05 09:48:22;;;;;;;5.80;1.73;;;16.60;93.90;;;;;;5053773;28;20025;-63
2021/04/05 09:50:54;;;;;;;6.50;1.80;;;16.80;93.80;;;;;;5054927;28;20499;-60
2021/04/05 09:53:50;;;;;;;9.32;2.70;;;16.90;93.70;;;;;;5053706;28;20121;-61
2021/04/05 09:56:21;;;;;;;6.70;2.00;;;16.70;91.90;;;;;;5055524;28;20511;-58
2021/04/05 09:58:56;;;;;;;5.78;2.13;;;16.70;93.00;;;;;;5062028;28;20058;-58
2021/04/05 10:01:25;;;;;;;7.45;2.22;;;16.90;93.10;;;;;;5073177;28;20020;-60
2021/04/05 10:04:03;;;;;;;7.22;2.22;;;17.10;93.60;;;;;;5071455;28;20036;-58
2021/04/05 10:06:33;;;;;;;5.45;1.95;;;17.00;93.60;;;;;;5072622;28;20416;-58
2021/04/05 10:09:01;;;;;;;7.78;2.35;;;16.90;93.70;;;;;;5071546;28;20028;-58
2021/04/05 10:11:29;;;;;;;6.32;2.30;;;16.80;93.90;;;;;;5068567;28;20170;-57
2021/04/05 10:14:02;;;;;;;7.38;2.70;;;16.70;94.00;;;;;;5073057;28;20465;-58
2021/04/05 10:16:30;;;;;;;7.03;2.33;;;16.70;94.10;;;;;;5056123;28;20071;-58
2021/04/05 10:19:07;;;;;;;5.40;2.22;;;16.70;94.20;;;;;;5073166;28;20056;-62
2021/04/05 10:21:56;;;;;;;7.18;2.40;;;16.60;94.20;;;;;;5071314;28;20111;-60
2021/04/05 10:24:23;;;;;;;6.22;1.95;;;16.60;94.20;;;;;;5071060;28;20388;-59
2021/04/05 10:26:52;;;;;;;5.90;1.73;;;16.60;94.30;;;;;;5061723;28;20029;-59
2021/04/05 10:29:22;;;;;;;7.43;2.25;;;16.60;94.40;;;;;;5052799;28;20067;-62
2021/04/05 10:31:49;;;;;;;5.20;1.90;;;16.60;94.40;;;;;;5052933;28;20025;-58
2021/04/05 10:34:16;;;;;;;6.18;1.90;;;16.70;94.70;;;;;;5053056;28;20029;-58
2021/04/05 10:36:55;;;;;;;7.47;2.00;;;17.20;93.60;;;;;;5053557;28;20032;-60
2021/04/05 10:39:22;;;;;;;6.72;2.38;;;17.50;93.00;;;;;;5064747;28;20376;-60
2021/04/05 10:42:20;;;;;;;4.85;1.70;;;17.70;92.70;;;;;;5067400;28;20031;-59
2021/04/05 10:44:47;;;;;;;7.18;1.80;;;17.80;92.50;;;;;;5072080;28;20033;-59
2021/04/05 10:47:22;;;;;;;6.72;1.70;;;17.90;92.40;;;;;;5072247;28;20123;-59
2021/04/05 10:49:51;;;;;;;4.43;1.58;;;18.00;92.20;;;;;;5068924;28;20033;-59
2021/04/05 10:52:33;;;;;;;5.47;2.08;;;18.00;92.10;;;;;;5062653;28;20032;-60
2021/04/05 10:55:01;;;;;;;3.83;1.60;;;17.90;92.50;;;;;;5066337;28;20043;-59
2021/04/05 10:57:34;;;;;;;4.47;1.73;;;17.90;92.20;;;;;;5054318;28;20035;-61
2021/04/05 11:00:06;;;;;;;4.00;1.47;;;17.90;92.20;;;;;;5053487;28;20476;-61
2021/04/05 11:02:49;;;;;;;6.18;2.13;;;17.90;92.10;;;;;;5052195;28;20029;-60
2021/04/05 11:05:22;;;;;;;5.18;2.00;;;17.90;92.10;;;;;;5054303;28;20037;-59
2021/04/05 11:07:55;;;;;;;6.10;1.77;;;17.90;92.10;;;;;;5063660;28;20074;-59
2021/04/05 11:10:22;;;;;;;5.88;1.88;;;17.90;92.00;;;;;;5066798;28;20078;-60
2021/04/05 11:13:01;;;;;;;4.93;1.42;;;17.90;92.00;;;;;;5069170;28;20021;-62
2021/04/05 11:15:28;;;;;;;6.22;1.75;;;17.90;92.00;;;;;;5072079;28;20031;-58
2021/04/05 11:17:56;;;;;;;9.82;2.28;;;17.90;91.90;;;;;;5059481;28;20594;-63
2021/04/05 11:20:29;;;;;;;8.00;1.73;;;17.90;92.20;;;;;;5066541;28;20024;-59
2021/04/05 11:22:58;;;;;;;5.95;2.08;;;18.00;92.00;;;;;;5071539;28;20024;-63
2021/04/05 11:25:31;;;;;;;5.88;1.73;;;18.10;92.10;;;;;;5061515;28;20507;-62
2021/04/05 11:28:12;;;;;;;7.75;1.88;;;18.20;91.90;;;;;;5071162;28;20064;-61
2021/04/05 11:30:39;;;;;;;3.90;1.42;;;18.30;91.70;;;;;;5069868;28;20093;-61
2021/04/05 11:33:09;;;;;;;7.18;2.03;;;18.40;91.80;;;;;;5062253;28;20021;-61
2021/04/05 11:35:37;;;;;;;7.90;2.13;;;18.40;91.70;;;;;;5071089;28;20070;-63
2021/04/05 11:38:06;;;;;;;8.55;2.45;;;18.50;91.70;;;;;;5063220;28;20397;-64
2021/04/05 11:40:33;;;;;;;12.70;2.63;;;18.50;91.90;;;;;;5062340;28;20029;-62
2021/04/05 11:43:01;;;;;;;10.65;2.67;;;18.50;91.90;;;;;;5071093;28;20046;-64
2021/04/05 11:45:42;;;;;;;6.60;2.20;;;18.60;92.20;;;;;;5071276;28;20024;-65
2021/04/05 11:48:27;;;;;;;6.63;2.10;;;18.60;92.20;;;;;;5070692;28;20075;-63
2021/04/05 11:50:53;;;;;;;8.77;2.10;;;18.60;91.90;;;;;;5067691;28;20038;-67
2021/04/05 11:53:54;;;;;;;7.82;2.13;;;18.70;91.90;;;;;;5071032;28;20024;-61
2021/04/05 11:56:24;;;;;;;7.95;2.17;;;18.60;91.90;;;;;;5067447;28;20029;-64
2021/04/05 11:59:06;;;;;;;7.93;2.33;;;18.60;91.90;;;;;;5068146;28;20037;-62
2021/04/05 12:02:02;;;;;;;7.65;2.40;;;18.60;91.90;;;;;;5068272;28;20540;-62
2021/04/05 12:04:32;;;;;;;5.50;2.10;;;18.50;91.90;;;;;;5064577;28;20520;-62
2021/04/05 12:07:11;;;;;;;5.80;2.20;;;18.60;91.90;;;;;;5069102;28;20047;-61
2021/04/05 12:09:59;;;;;;;6.35;2.17;;;18.50;91.80;;;;;;5073053;28;20021;-62
2021/04/05 12:12:52;;;;;;;6.68;2.17;;;18.50;91.80;;;;;;5071826;28;20031;-63
2021/04/05 12:15:20;;;;;;;6.65;2.10;;;18.50;91.60;;;;;;5073353;28;20027;-63
2021/04/05 12:17:50;;;;;;;6.22;2.40;;;18.50;91.60;;;;;;5072606;28;20036;-60
2021/04/05 12:20:20;;;;;;;6.75;2.55;;;18.50;91.80;;;;;;5069247;28;20570;-62
2021/04/05 12:22:51;;;;;;;5.45;1.90;;;18.50;91.60;;;;;;5073303;28;20020;-61
2021/04/05 12:25:25;;;;;;;5.53;2.08;;;18.40;91.50;;;;;;5070185;28;20920;-60
2021/04/05 12:27:50;;;;;;;8.60;2.13;;;18.40;91.70;;;;;;5072280;28;20086;-61
2021/04/05 12:30:24;;;;;;;8.55;2.30;;;18.40;91.80;;;;;;5070965;28;20279;-60
2021/04/05 12:32:53;;;;;;;7.93;2.30;;;18.30;91.90;;;;;;5072226;28;20020;-63
2021/04/05 12:35:21;;;;;;;7.30;2.33;;;18.30;92.00;;;;;;5071767;28;20056;-59
2021/04/05 12:37:57;;;;;;;6.35;2.08;;;18.30;92.00;;;;;;5072861;28;20017;-60
2021/04/05 12:40:26;;;;;;;7.45;2.15;;;18.30;92.00;;;;;;5071270;28;20021;-61
2021/04/05 12:42:53;;;;;;;7.55;2.20;;;18.20;91.90;;;;;;5071082;28;20082;-63
2021/04/05 12:45:20;;;;;;;7.47;2.25;;;18.20;91.90;;;;;;5072860;28;20036;-62
2021/04/05 12:47:50;;;;;;;4.30;1.92;;;18.20;91.70;;;;;;5072455;28;20043;-60
2021/04/05 12:50:21;;;;;;;5.38;2.00;;;18.10;91.60;;;;;;5070536;28;20067;-60
2021/04/05 12:52:48;;;;;;;6.32;1.95;;;18.10;91.50;;;;;;5072668;28;20028;-60
2021/04/05 12:55:19;;;;;;;4.47;1.98;;;18.10;91.40;;;;;;5068524;28;20027;-61
2021/04/05 12:57:45;;;;;;;6.28;1.95;;;18.00;91.40;;;;;;5061358;28;20040;-63
2021/04/05 13:00:14;;;;;;;5.53;1.80;;;18.00;91.40;;;;;;5072545;28;20017;-61
2021/04/05 13:02:44;;;;;;;6.07;1.88;;;18.00;91.20;;;;;;5069025;28;20456;-60
2021/04/05 13:05:15;;;;;;;5.60;1.80;;;18.00;91.00;;;;;;5071526;28;20032;-64
2021/04/05 13:08:02;;;;;;;5.70;1.80;;;18.00;91.00;;;;;;5071444;28;20039;-64
2021/04/05 13:10:35;;;;;;;6.20;1.80;;;17.90;90.80;;;;;;5069440;28;20036;-61
2021/04/05 13:13:09;;;;;;;6.03;1.80;;;17.90;90.70;;;;;;5069048;28;20566;-64
2021/04/05 13:15:36;;;;;;;5.85;2.05;;;17.90;90.50;;;;;;5072612;28;20094;-65
2021/04/05 13:18:11;;;;;;;4.35;1.65;;;17.90;90.40;;;;;;5071990;28;20020;-65
2021/04/05 13:20:42;;;;;;;5.30;1.67;;;17.90;90.30;;;;;;5070135;28;20028;-62
2021/04/05 13:23:09;;;;;;;4.22;1.73;;;17.90;90.20;;;;;;5070720;28;20048;-60
2021/04/05 13:25:40;;;;;;;5.18;1.90;;;17.80;90.00;;;;;;5071659;28;20043;-61